createdAt,value
2022-12-02T00:01:41.725Z,85.37
2022-12-02T00:03:45.175Z,90.53
2022-12-02T00:05:51.239Z,108.17
2022-12-02T00:07:57.745Z,112.30
2022-12-02T00:10:00.018Z,103.67
2022-12-02T00:12:28.100Z,110.40
2022-12-02T00:14:34.503Z,98.07
2022-12-02T00:16:36.691Z,96.23
2022-12-02T00:18:38.934Z,97.20
2022-12-02T00:20:43.307Z,98.70
2022-12-02T00:22:45.189Z,98.53
2022-12-02T00:24:47.576Z,109.53
2022-12-02T00:26:49.379Z,104.67
2022-12-02T00:28:51.304Z,99.83
2022-12-02T00:30:53.565Z,94.60
2022-12-02T00:32:56.040Z,93.33
2022-12-02T00:34:58.168Z,91.83
2022-12-02T00:37:00.484Z,93.33
2022-12-02T00:39:04.939Z,97.23
2022-12-02T00:41:07.001Z,95.27
2022-12-02T00:43:27.676Z,97.07
2022-12-02T00:45:48.492Z,100.53
2022-12-02T00:47:50.986Z,100.00
2022-12-02T00:49:53.211Z,104.83
2022-12-02T00:51:55.312Z,100.10
2022-12-02T00:53:57.649Z,105.53
2022-12-02T00:55:59.928Z,110.97
2022-12-02T00:58:01.965Z,102.67
2022-12-02T01:00:06.193Z,93.00
2022-12-02T01:02:08.230Z,91.63
2022-12-02T01:04:12.687Z,92.30
2022-12-02T01:06:15.441Z,88.17
2022-12-02T01:08:17.701Z,83.47
2022-12-02T01:10:19.856Z,82.37
2022-12-02T01:12:22.525Z,71.87
2022-12-02T01:14:27.123Z,64.13
2022-12-02T01:16:31.929Z,59.17
2022-12-02T01:18:34.754Z,55.70
2022-12-02T01:20:36.901Z,52.23
2022-12-02T01:22:39.776Z,49.40
2022-12-02T01:24:41.781Z,48.13
2022-12-02T01:26:43.693Z,46.60
2022-12-02T01:28:45.730Z,44.83
2022-12-02T01:30:50.575Z,42.60
2022-12-02T01:32:52.740Z,44.77
2022-12-02T01:34:54.799Z,45.23
2022-12-02T01:36:56.821Z,45.70
2022-12-02T01:39:01.986Z,43.43
2022-12-02T01:41:06.201Z,44.70
2022-12-02T01:43:08.649Z,48.23
2022-12-02T01:45:11.999Z,47.43
2022-12-02T01:47:14.444Z,48.97
2022-12-02T01:49:17.859Z,47.70
2022-12-02T01:51:20.321Z,46.37
2022-12-02T01:53:22.426Z,47.07
2022-12-02T01:55:26.364Z,46.03
2022-12-02T01:57:31.100Z,47.83
2022-12-02T01:59:33.376Z,47.97
2022-12-02T02:01:35.760Z,47.77
2022-12-02T02:03:37.917Z,52.50
2022-12-02T02:05:40.472Z,50.13
2022-12-02T02:07:44.212Z,52.20
2022-12-02T02:09:46.328Z,53.47
2022-12-02T02:11:48.540Z,54.43
2022-12-02T02:13:50.759Z,58.47
2022-12-02T02:15:52.787Z,55.80
2022-12-02T02:17:58.500Z,55.30
2022-12-02T02:20:09.762Z,55.47
2022-12-02T02:22:37.581Z,52.60
2022-12-02T02:24:40.330Z,52.27
2022-12-02T02:26:42.685Z,52.43
2022-12-02T02:28:45.165Z,54.43
2022-12-02T02:30:48.097Z,51.73
2022-12-02T02:32:52.018Z,51.53
2022-12-02T02:34:54.097Z,51.93
2022-12-02T02:36:56.650Z,52.87
2022-12-02T02:38:58.616Z,50.63
2022-12-02T02:41:01.021Z,52.37
2022-12-02T02:43:04.256Z,50.87
2022-12-02T02:45:06.808Z,49.53
2022-12-02T02:47:08.892Z,51.07
2022-12-02T02:49:11.285Z,52.77
2022-12-02T02:51:14.314Z,52.17
2022-12-02T02:53:21.077Z,59.60
2022-12-02T02:55:26.637Z,62.07
2022-12-02T02:57:28.934Z,60.80
2022-12-02T02:59:30.961Z,63.23
2022-12-02T03:01:37.091Z,63.00
2022-12-02T03:03:45.021Z,58.03
2022-12-02T03:05:49.843Z,60.20
2022-12-02T03:07:53.042Z,51.57
2022-12-02T03:09:58.307Z,52.33
2022-12-02T03:12:00.681Z,54.70
2022-12-02T03:14:05.186Z,48.63
2022-12-02T03:16:11.196Z,52.03
2022-12-02T03:18:13.507Z,52.20
2022-12-02T03:20:16.113Z,48.23
2022-12-02T03:22:18.431Z,50.63
2022-12-02T03:24:20.745Z,53.23
2022-12-02T03:26:23.308Z,59.63
2022-12-02T03:28:25.538Z,54.80
2022-12-02T03:30:28.054Z,52.43
2022-12-02T03:32:30.330Z,48.47
2022-12-02T03:34:32.662Z,50.77
2022-12-02T03:36:35.691Z,48.33
2022-12-02T03:38:38.627Z,48.53
2022-12-02T03:40:41.532Z,44.30
2022-12-02T03:42:43.775Z,48.30
2022-12-02T03:44:46.003Z,44.37
2022-12-02T03:46:48.360Z,48.13
2022-12-02T03:48:50.888Z,41.77
2022-12-02T03:50:53.965Z,46.43
2022-12-02T03:52:56.338Z,45.00
2022-12-02T03:54:59.054Z,44.87
2022-12-02T03:57:01.277Z,43.10
2022-12-02T03:59:03.393Z,40.57
2022-12-02T04:01:05.995Z,41.90
2022-12-02T04:03:08.230Z,45.40
2022-12-02T04:05:11.185Z,46.07
2022-12-02T04:07:13.218Z,52.03
2022-12-02T04:09:15.336Z,46.03
2022-12-02T04:11:20.661Z,42.27
2022-12-02T04:13:22.867Z,43.10
2022-12-02T04:15:27.260Z,40.80
2022-12-02T04:17:29.169Z,45.30
2022-12-02T04:19:31.148Z,42.47
2022-12-02T04:21:33.134Z,41.07
2022-12-02T04:23:35.277Z,45.37
2022-12-02T04:25:37.316Z,44.43
2022-12-02T04:27:39.252Z,45.67
2022-12-02T04:29:41.255Z,47.87
2022-12-02T04:31:43.299Z,45.20
2022-12-02T04:33:45.363Z,47.33
2022-12-02T04:35:47.396Z,40.83
2022-12-02T04:37:52.010Z,42.37
2022-12-02T04:39:53.919Z,37.93
2022-12-02T04:41:58.012Z,38.30
2022-12-02T04:44:00.251Z,40.13
2022-12-02T04:46:02.323Z,41.23
2022-12-02T04:48:04.861Z,42.37
2022-12-02T04:50:08.082Z,37.97
2022-12-02T04:52:10.315Z,37.90
2022-12-02T04:54:12.261Z,37.17
2022-12-02T04:56:14.155Z,40.20
2022-12-02T04:58:16.113Z,38.00
2022-12-02T05:00:18.314Z,38.70
2022-12-02T05:02:20.580Z,36.93
2022-12-02T05:04:22.816Z,34.87
2022-12-02T05:06:24.774Z,36.60
2022-12-02T05:08:26.936Z,36.90
2022-12-02T05:10:28.984Z,37.50
2022-12-02T05:12:31.276Z,37.40
2022-12-02T05:14:33.465Z,37.67
2022-12-02T05:16:35.635Z,39.10
2022-12-02T05:18:37.676Z,42.93
2022-12-02T05:20:39.530Z,41.63
2022-12-02T05:22:41.574Z,44.70
2022-12-02T05:24:43.784Z,43.87
2022-12-02T05:26:45.825Z,46.83
2022-12-02T05:28:48.001Z,45.53
2022-12-02T05:30:49.956Z,45.93
2022-12-02T05:32:52.804Z,46.20
2022-12-02T05:34:54.805Z,44.70
2022-12-02T05:36:56.954Z,43.67
2022-12-02T05:38:58.957Z,44.37
2022-12-02T05:41:01.383Z,45.30
2022-12-02T05:43:18.952Z,42.73
2022-12-02T05:45:23.004Z,41.10
2022-12-02T05:47:28.336Z,39.47
2022-12-02T05:49:31.483Z,40.67
2022-12-02T05:51:33.709Z,40.00
2022-12-02T05:53:35.819Z,41.27
2022-12-02T05:55:37.890Z,40.30
2022-12-02T05:57:40.024Z,41.27
2022-12-02T05:59:44.212Z,42.07
2022-12-02T06:01:52.128Z,41.97
2022-12-02T06:03:54.267Z,43.50
2022-12-02T06:05:56.406Z,44.13
2022-12-02T06:08:13.962Z,41.47
2022-12-02T06:10:31.478Z,40.77
2022-12-02T06:12:35.514Z,40.03
2022-12-02T06:14:37.630Z,41.07
2022-12-02T06:16:41.636Z,43.17
2022-12-02T06:18:43.651Z,42.10
2022-12-02T06:20:50.536Z,43.10
2022-12-02T06:22:52.802Z,43.27
2022-12-02T06:24:57.434Z,40.20
2022-12-02T06:27:01.869Z,40.13
2022-12-02T06:29:06.201Z,39.73
2022-12-02T06:31:15.186Z,42.60
2022-12-02T06:33:27.198Z,45.60
2022-12-02T06:35:31.665Z,47.57
2022-12-02T06:37:33.560Z,44.17
2022-12-02T06:39:35.613Z,49.53
2022-12-02T06:41:38.323Z,48.13
2022-12-02T06:43:40.299Z,48.53
2022-12-02T06:45:43.660Z,49.53
2022-12-02T06:47:56.345Z,48.60
2022-12-02T06:50:30.038Z,49.73
2022-12-02T06:52:42.934Z,49.73
2022-12-02T06:54:46.298Z,47.97
2022-12-02T06:56:49.577Z,45.80
2022-12-02T06:58:57.555Z,48.27
2022-12-02T07:01:33.630Z,48.17
2022-12-02T07:03:41.437Z,48.87
2022-12-02T07:05:43.602Z,54.37
2022-12-02T07:07:45.683Z,70.03
2022-12-02T07:09:52.909Z,85.33
2022-12-02T07:11:59.060Z,82.10
2022-12-02T07:14:00.997Z,72.67
2022-12-02T07:16:05.155Z,60.33
2022-12-02T07:18:22.009Z,56.90
2022-12-02T07:20:32.467Z,53.30
2022-12-02T07:22:45.648Z,53.27
2022-12-02T07:25:10.558Z,51.13
2022-12-02T07:27:27.131Z,47.07
2022-12-02T07:29:31.531Z,42.33
2022-12-02T07:31:33.476Z,41.13
2022-12-02T07:33:35.564Z,43.90
2022-12-02T07:35:37.600Z,44.60
2022-12-02T07:37:39.600Z,43.90
2022-12-02T07:39:41.925Z,54.03
2022-12-02T07:41:44.008Z,51.53
2022-12-02T07:43:46.224Z,45.40
2022-12-02T07:45:48.580Z,44.20
2022-12-02T07:47:50.605Z,42.50
2022-12-02T07:49:57.676Z,43.93
2022-12-02T07:51:59.689Z,44.13
2022-12-02T07:54:01.876Z,50.10
2022-12-02T07:56:04.437Z,48.83
2022-12-02T07:58:06.461Z,62.40
2022-12-02T08:00:09.621Z,75.10
2022-12-02T08:02:13.968Z,66.00
2022-12-02T08:04:16.135Z,72.13
2022-12-02T08:06:18.343Z,67.60
2022-12-02T08:08:20.599Z,62.27
2022-12-02T08:10:23.231Z,60.57
2022-12-02T08:12:25.265Z,60.10
2022-12-02T08:14:27.256Z,63.00
2022-12-02T08:16:29.265Z,56.03
2022-12-02T08:18:31.324Z,58.47
2022-12-02T08:20:33.374Z,51.63
2022-12-02T08:22:35.446Z,50.43
2022-12-02T08:24:37.929Z,53.10
2022-12-02T08:26:40.159Z,51.90
2022-12-02T08:28:42.631Z,51.73
2022-12-02T08:30:44.526Z,60.10
2022-12-02T08:32:46.874Z,56.67
2022-12-02T08:34:49.156Z,50.80
2022-12-02T08:36:51.600Z,52.80
2022-12-02T08:38:53.725Z,56.03
2022-12-02T08:40:55.842Z,57.83
2022-12-02T08:42:57.972Z,51.07
2022-12-02T08:45:00.093Z,47.80
2022-12-02T08:47:04.797Z,44.67
2022-12-02T08:49:07.291Z,43.73
2022-12-02T08:51:09.513Z,42.93
2022-12-02T08:53:13.240Z,45.97
2022-12-02T08:55:15.240Z,45.50
2022-12-02T08:57:17.454Z,52.10
2022-12-02T08:59:19.540Z,54.43
2022-12-02T09:01:21.708Z,62.10
2022-12-02T09:03:27.180Z,64.90
2022-12-02T09:05:29.346Z,74.90
2022-12-02T09:07:32.667Z,81.67
2022-12-02T09:09:35.316Z,75.27
2022-12-02T09:11:37.319Z,79.83
2022-12-02T09:13:39.769Z,76.90
2022-12-02T09:15:41.708Z,73.97
2022-12-02T09:17:43.736Z,75.10
2022-12-02T09:19:45.792Z,68.67
2022-12-02T09:21:48.136Z,68.57
2022-12-02T09:23:51.008Z,66.47
2022-12-02T09:25:53.487Z,67.80
2022-12-02T09:27:55.519Z,61.97
2022-12-02T09:29:57.671Z,63.43
2022-12-02T09:31:59.664Z,62.27
2022-12-02T09:34:01.843Z,61.60
2022-12-02T09:36:04.766Z,61.83
2022-12-02T09:38:07.177Z,61.20
2022-12-02T09:40:10.418Z,64.37
2022-12-02T09:42:13.069Z,61.87
2022-12-02T09:44:18.011Z,64.07
2022-12-02T09:46:24.581Z,66.50
2022-12-02T09:48:28.484Z,61.50
2022-12-02T09:50:32.315Z,61.70
2022-12-02T09:52:34.731Z,60.10
2022-12-02T09:54:36.930Z,61.90
2022-12-02T09:56:40.547Z,57.60
2022-12-02T09:58:43.444Z,61.50
2022-12-02T10:00:46.578Z,61.90
2022-12-02T10:02:54.579Z,63.77
2022-12-02T10:05:01.935Z,62.70
2022-12-02T10:07:04.068Z,111.90
2022-12-02T10:09:32.004Z,85.50
2022-12-02T10:11:34.102Z,73.17
2022-12-02T10:13:40.449Z,111.80
2022-12-02T10:15:43.544Z,116.43
2022-12-02T10:17:46.928Z,151.40
2022-12-02T10:19:51.014Z,141.63
2022-12-02T10:21:55.627Z,155.87
2022-12-02T10:24:10.460Z,129.83
2022-12-02T10:26:15.529Z,151.57
2022-12-02T10:28:26.875Z,133.97
2022-12-02T10:30:29.134Z,93.30
2022-12-02T10:32:31.251Z,59.33
2022-12-02T10:34:35.459Z,51.00
2022-12-02T10:36:40.550Z,44.67
2022-12-02T10:38:45.497Z,43.03
2022-12-02T10:40:47.468Z,95.63
2022-12-02T10:43:13.057Z,98.17
2022-12-02T10:45:22.170Z,101.67
2022-12-02T10:47:26.872Z,91.90
2022-12-02T10:49:36.859Z,76.83
2022-12-02T10:51:39.841Z,75.50
2022-12-02T10:53:43.521Z,75.83
2022-12-02T10:55:47.187Z,69.47
2022-12-02T10:57:50.879Z,63.73
2022-12-02T10:59:57.282Z,57.87
2022-12-02T11:02:01.924Z,72.30
2022-12-02T11:04:06.029Z,86.57
2022-12-02T11:06:21.157Z,148.00
2022-12-02T11:08:26.727Z,119.07
2022-12-02T11:10:40.835Z,103.03
2022-12-02T11:12:54.029Z,94.10
2022-12-02T11:14:59.058Z,67.73
2022-12-02T11:17:13.000Z,51.87
2022-12-02T11:19:34.305Z,46.23
2022-12-02T11:21:43.950Z,38.13
2022-12-02T11:23:47.807Z,35.47
2022-12-02T11:26:19.185Z,33.63
2022-12-02T11:28:21.247Z,33.90
2022-12-02T11:30:36.671Z,32.77
2022-12-02T11:32:38.836Z,31.27
2022-12-02T11:35:15.240Z,33.77
2022-12-02T11:37:30.697Z,31.20
2022-12-02T11:39:42.636Z,32.23
2022-12-02T11:41:48.395Z,33.63
2022-12-02T11:44:16.538Z,32.03
2022-12-02T11:46:21.762Z,32.23
2022-12-02T11:48:25.564Z,31.33
2022-12-02T11:50:39.576Z,35.73
2022-12-02T11:52:55.872Z,33.13
2022-12-02T11:55:01.092Z,35.33
2022-12-02T11:57:03.242Z,31.23
2022-12-02T11:59:26.894Z,30.67
2022-12-02T12:01:30.316Z,34.20
2022-12-02T12:03:34.298Z,37.37
2022-12-02T12:05:39.790Z,35.30
2022-12-02T12:07:49.977Z,28.83
2022-12-02T12:09:59.723Z,26.97
2022-12-02T12:12:14.287Z,27.70
2022-12-02T12:14:21.621Z,25.97
2022-12-02T12:16:25.021Z,25.57
2022-12-02T12:18:49.350Z,25.80
2022-12-02T12:20:54.506Z,29.37
2022-12-02T12:23:34.699Z,29.43
2022-12-02T12:25:48.751Z,28.57
2022-12-02T12:27:50.580Z,29.23
2022-12-02T12:29:56.129Z,30.87
2022-12-02T12:31:58.523Z,30.73
2022-12-02T12:34:00.424Z,28.07
2022-12-02T12:36:02.530Z,32.00
2022-12-02T12:38:04.743Z,36.20
2022-12-02T12:40:08.499Z,36.37
2022-12-02T12:42:10.614Z,41.73
2022-12-02T12:44:12.809Z,37.63
2022-12-02T12:46:15.220Z,38.30
2022-12-02T12:48:17.290Z,42.67
2022-12-02T12:50:19.192Z,40.13
2022-12-02T12:52:21.075Z,37.83
2022-12-02T12:54:23.429Z,37.13
2022-12-02T12:56:25.789Z,34.30
2022-12-02T12:58:27.889Z,32.33
2022-12-02T13:00:29.926Z,32.37
2022-12-02T13:02:33.053Z,33.60
2022-12-02T13:04:35.391Z,35.80
2022-12-02T13:06:42.453Z,34.33
2022-12-02T13:08:45.602Z,33.43
2022-12-02T13:10:47.443Z,33.27
2022-12-02T13:12:50.023Z,33.60
2022-12-02T13:14:52.147Z,34.47
2022-12-02T13:16:54.305Z,34.90
2022-12-02T13:18:56.589Z,35.73
2022-12-02T13:20:58.507Z,36.23
2022-12-02T13:23:00.846Z,33.57
2022-12-02T13:25:03.664Z,35.67
2022-12-02T13:27:06.380Z,34.97
2022-12-02T13:29:08.694Z,34.90
2022-12-02T13:31:10.981Z,36.13
2022-12-02T13:33:13.107Z,37.17
2022-12-02T13:35:21.961Z,37.97
2022-12-02T13:37:24.799Z,36.97
2022-12-02T13:39:26.976Z,35.47
2022-12-02T13:41:28.984Z,36.30
2022-12-02T13:43:31.110Z,34.73
2022-12-02T13:45:33.657Z,40.47
2022-12-02T13:47:35.842Z,38.67
2022-12-02T13:49:37.691Z,45.33
2022-12-02T13:51:40.006Z,43.93
2022-12-02T13:53:43.685Z,42.03
2022-12-02T13:55:45.934Z,73.03
2022-12-02T13:57:48.156Z,99.00
2022-12-02T13:59:50.341Z,93.33
2022-12-02T14:01:52.976Z,72.60
2022-12-02T14:03:55.615Z,66.03
2022-12-02T14:05:57.872Z,60.37
2022-12-02T14:08:00.162Z,55.33
2022-12-02T14:10:04.643Z,51.20
2022-12-02T14:12:07.044Z,44.07
2022-12-02T14:14:11.449Z,41.63
2022-12-02T14:16:13.723Z,39.20
2022-12-02T14:18:22.034Z,39.00
2022-12-02T14:20:24.154Z,37.70
2022-12-02T14:22:26.249Z,38.57
2022-12-02T14:24:28.295Z,40.00
2022-12-02T14:26:30.897Z,43.07
2022-12-02T14:28:33.251Z,42.10
2022-12-02T14:30:35.613Z,44.43
2022-12-02T14:32:40.110Z,40.03
2022-12-02T14:34:42.303Z,41.23
2022-12-02T14:36:45.171Z,42.83
2022-12-02T14:38:50.734Z,42.07
2022-12-02T14:40:53.056Z,42.27
2022-12-02T14:42:55.476Z,45.77
2022-12-02T14:44:57.693Z,45.87
2022-12-02T14:47:00.115Z,49.83
2022-12-02T14:49:31.110Z,47.43
2022-12-02T14:51:27.117Z,41.93
2022-12-02T14:53:29.295Z,43.57
2022-12-02T14:55:31.756Z,42.97
2022-12-02T14:57:34.050Z,48.50
2022-12-02T14:59:36.579Z,52.67
2022-12-02T15:01:38.576Z,49.10
2022-12-02T15:03:41.018Z,49.37
2022-12-02T15:05:43.143Z,44.47
2022-12-02T15:07:46.240Z,42.73
2022-12-02T15:09:48.522Z,40.50
2022-12-02T15:11:52.333Z,40.00
2022-12-02T15:13:54.310Z,37.00
2022-12-02T15:16:01.401Z,37.93
2022-12-02T15:18:05.611Z,36.37
2022-12-02T15:20:11.979Z,35.03
2022-12-02T15:22:14.149Z,32.97
2022-12-02T15:24:16.363Z,33.00
2022-12-02T15:26:18.583Z,31.50
2022-12-02T15:28:20.927Z,32.60
2022-12-02T15:30:23.274Z,30.30
2022-12-02T15:32:50.678Z,31.17
2022-12-02T15:34:55.072Z,30.17
2022-12-02T15:36:57.322Z,30.50
2022-12-02T15:39:02.927Z,32.27
2022-12-02T15:44:58.941Z,30.17
2022-12-02T15:47:01.265Z,30.63
2022-12-02T15:49:03.531Z,33.07
2022-12-02T15:51:05.981Z,33.17
2022-12-02T15:53:07.979Z,32.70
2022-12-02T15:55:10.454Z,32.23
2022-12-02T15:57:12.613Z,35.10
2022-12-02T15:59:16.894Z,34.27
2022-12-02T16:01:18.956Z,34.97
2022-12-02T16:03:21.061Z,36.87
2022-12-02T16:05:23.220Z,37.80
2022-12-02T16:07:25.333Z,40.10
2022-12-02T16:09:27.689Z,38.20
2022-12-02T16:11:29.724Z,37.33
2022-12-02T16:13:32.163Z,34.83
2022-12-02T16:15:36.599Z,39.10
2022-12-02T16:17:38.445Z,41.57
2022-12-02T16:19:40.346Z,44.80
2022-12-02T16:21:45.102Z,43.50
2022-12-02T16:23:50.733Z,60.07
2022-12-02T16:25:53.314Z,82.50
2022-12-02T16:27:55.171Z,70.57
2022-12-02T16:29:57.406Z,67.33
2022-12-02T16:31:59.504Z,60.07
2022-12-02T16:34:01.697Z,63.03
2022-12-02T16:36:04.164Z,61.43
2022-12-02T16:38:09.228Z,64.13
2022-12-02T16:40:12.404Z,57.33
2022-12-02T16:42:14.530Z,43.97
2022-12-02T16:44:16.913Z,37.33
2022-12-02T16:46:19.727Z,36.73
2022-12-02T16:48:21.896Z,35.93
2022-12-02T16:50:23.765Z,34.60
2022-12-02T16:52:26.216Z,33.87
2022-12-02T16:54:28.022Z,34.90
2022-12-02T16:56:33.083Z,33.67
2022-12-02T16:58:35.938Z,35.00
2022-12-02T17:00:38.615Z,34.73
2022-12-02T17:02:42.894Z,36.87
2022-12-02T17:04:46.339Z,33.93
2022-12-02T17:06:48.296Z,50.07
2022-12-02T17:08:55.407Z,123.20
2022-12-02T17:10:58.452Z,116.37
2022-12-02T17:13:00.391Z,81.90
2022-12-02T17:15:02.916Z,62.53
2022-12-02T17:17:23.903Z,57.27
2022-12-02T17:19:27.214Z,75.00
2022-12-02T17:21:29.208Z,82.27
2022-12-02T17:23:31.190Z,81.57
2022-12-02T17:25:33.139Z,73.13
2022-12-02T17:27:35.023Z,81.87
2022-12-02T17:29:39.854Z,106.07
2022-12-02T17:31:43.787Z,100.97
2022-12-02T17:33:45.742Z,81.97
2022-12-02T17:35:47.782Z,74.43
2022-12-02T17:37:49.680Z,66.40
2022-12-02T17:39:52.028Z,63.53
2022-12-02T17:41:53.974Z,66.87
2022-12-02T17:43:55.956Z,75.47
2022-12-02T17:45:58.062Z,71.47
2022-12-02T17:48:00.010Z,60.17
2022-12-02T17:50:04.366Z,60.47
2022-12-02T17:52:19.659Z,94.47
2022-12-02T17:54:22.363Z,113.70
2022-12-02T17:56:24.361Z,103.70
2022-12-02T17:58:26.922Z,155.17
2022-12-02T18:00:31.559Z,108.30
2022-12-02T18:02:33.473Z,85.43
2022-12-02T18:04:35.548Z,75.90
2022-12-02T18:06:37.809Z,60.50
2022-12-02T18:08:39.904Z,52.57
2022-12-02T18:10:41.902Z,51.00
2022-12-02T18:12:43.943Z,44.43
2022-12-02T18:14:46.357Z,42.97
2022-12-02T18:16:48.517Z,39.87
2022-12-02T18:18:50.697Z,39.27
2022-12-02T18:20:52.790Z,38.90
2022-12-02T18:22:55.189Z,39.57
2022-12-02T18:24:58.628Z,39.17
2022-12-02T18:27:00.682Z,40.93
2022-12-02T18:29:02.965Z,40.40
2022-12-02T18:31:05.651Z,37.33
2022-12-02T18:33:07.889Z,35.03
2022-12-02T18:35:10.348Z,34.30
2022-12-02T18:37:12.552Z,35.03
2022-12-02T18:39:14.716Z,35.53
2022-12-02T18:41:16.895Z,38.20
2022-12-02T18:43:18.879Z,37.67
2022-12-02T18:45:23.512Z,37.87
2022-12-02T18:47:25.773Z,38.60
2022-12-02T18:49:27.933Z,37.00
2022-12-02T18:51:30.130Z,37.17
2022-12-02T18:53:31.953Z,35.73
2022-12-02T18:55:33.704Z,36.17
2022-12-02T18:57:35.753Z,37.77
2022-12-02T18:59:37.897Z,37.13
2022-12-02T19:01:40.229Z,39.10
2022-12-02T19:03:42.409Z,37.67
2022-12-02T19:05:44.785Z,36.00
2022-12-02T19:07:47.622Z,37.97
2022-12-02T19:09:53.701Z,38.97
2022-12-02T19:11:56.245Z,38.37
2022-12-02T19:13:58.357Z,39.10
2022-12-02T19:16:00.313Z,39.13
2022-12-02T19:18:02.492Z,39.20
2022-12-02T19:20:05.125Z,40.13
2022-12-02T19:22:07.536Z,40.37
2022-12-02T19:24:09.662Z,40.20
2022-12-02T19:26:12.192Z,41.17
2022-12-02T19:28:14.619Z,41.40
2022-12-02T19:30:16.841Z,45.57
2022-12-02T19:32:19.602Z,47.23
2022-12-02T19:34:21.666Z,45.33
2022-12-02T19:36:24.080Z,44.93
2022-12-02T19:38:26.107Z,46.23
2022-12-02T19:40:35.719Z,48.00
2022-12-02T19:42:41.311Z,48.30
2022-12-02T19:44:43.530Z,44.43
2022-12-02T19:46:45.861Z,45.60
2022-12-02T19:48:48.404Z,43.30
2022-12-02T19:50:51.427Z,41.07
2022-12-02T19:52:53.432Z,39.53
2022-12-02T19:54:56.008Z,46.73
2022-12-02T19:56:58.697Z,56.07
2022-12-02T19:59:00.885Z,66.67
2022-12-02T20:01:03.033Z,72.20
2022-12-02T20:03:05.427Z,88.23
2022-12-02T20:05:10.736Z,86.00
2022-12-02T20:07:13.160Z,78.70
2022-12-02T20:09:15.374Z,97.87
2022-12-02T20:11:18.001Z,92.37
2022-12-02T20:13:20.287Z,77.23
2022-12-02T20:15:22.698Z,73.67
2022-12-02T20:17:24.577Z,83.17
2022-12-02T20:19:26.593Z,87.53
2022-12-02T20:21:28.671Z,80.33
2022-12-02T20:23:30.626Z,83.83
2022-12-02T20:25:32.588Z,85.57
2022-12-02T20:27:34.622Z,84.67
2022-12-02T20:29:36.710Z,110.00
2022-12-02T20:31:38.739Z,119.73
2022-12-02T20:33:40.983Z,106.80
2022-12-02T20:35:42.947Z,102.80
2022-12-02T20:37:45.283Z,95.27
2022-12-02T20:39:47.348Z,83.13
2022-12-02T20:41:49.600Z,89.33
2022-12-02T20:43:51.563Z,96.57
2022-12-02T20:45:53.673Z,98.20
2022-12-02T20:47:55.888Z,86.03
2022-12-02T20:49:58.554Z,62.43
2022-12-02T20:52:00.654Z,54.47
2022-12-02T20:54:02.868Z,50.53
2022-12-02T20:56:05.245Z,49.73
2022-12-02T20:58:08.572Z,62.37
2022-12-02T21:00:11.685Z,64.87
2022-12-02T21:02:14.293Z,70.63
2022-12-02T21:04:16.433Z,83.57
2022-12-02T21:06:21.025Z,86.13
2022-12-02T21:08:23.274Z,77.27
2022-12-02T21:10:25.380Z,69.40
2022-12-02T21:12:27.809Z,67.23
2022-12-02T21:14:29.932Z,65.03
2022-12-02T21:16:32.408Z,59.97
2022-12-02T21:18:38.161Z,59.43
2022-12-02T21:20:40.801Z,53.73
2022-12-02T21:22:43.010Z,48.20
2022-12-02T21:24:45.241Z,47.63
2022-12-02T21:26:47.386Z,48.70
2022-12-02T21:28:52.377Z,45.33
2022-12-02T21:30:54.584Z,46.80
2022-12-02T21:32:56.803Z,44.77
2022-12-02T21:34:59.171Z,47.40
2022-12-02T21:37:01.305Z,45.30
2022-12-02T21:39:03.618Z,43.73
2022-12-02T21:41:06.053Z,43.60
2022-12-02T21:43:12.897Z,43.93
2022-12-02T21:45:18.332Z,41.87
2022-12-02T21:47:20.544Z,41.30
2022-12-02T21:49:22.747Z,39.07
2022-12-02T21:51:24.918Z,39.33
2022-12-02T21:53:27.044Z,43.67
2022-12-02T21:55:29.683Z,44.93
2022-12-02T21:57:31.590Z,47.30
2022-12-02T21:59:34.759Z,79.03
2022-12-02T22:01:40.919Z,99.97
2022-12-02T22:03:45.198Z,94.33
2022-12-02T22:05:47.300Z,101.13
2022-12-02T22:07:49.742Z,109.33
2022-12-02T22:09:51.811Z,82.67
2022-12-02T22:11:54.321Z,65.10
2022-12-02T22:13:57.032Z,59.57
2022-12-02T22:16:02.620Z,52.70
2022-12-02T22:18:04.914Z,48.83
2022-12-02T22:20:07.805Z,45.07
2022-12-02T22:22:10.047Z,48.40
2022-12-02T22:24:12.150Z,51.13
2022-12-02T22:26:19.493Z,53.57
2022-12-02T22:28:22.225Z,46.83
2022-12-02T22:30:24.493Z,46.07
2022-12-02T22:32:29.866Z,44.27
2022-12-02T22:34:31.909Z,42.43
2022-12-02T22:36:33.953Z,42.33
2022-12-02T22:38:36.101Z,41.50
2022-12-02T22:40:41.076Z,43.90
2022-12-02T22:42:43.219Z,41.80
2022-12-02T22:44:45.293Z,42.63
2022-12-02T22:46:47.660Z,47.50
2022-12-02T22:48:49.836Z,44.60
2022-12-02T22:50:52.124Z,41.27
2022-12-02T22:52:54.119Z,39.00
2022-12-02T22:54:56.302Z,42.40
2022-12-02T22:56:59.019Z,42.37
2022-12-02T22:59:01.450Z,41.63
2022-12-02T23:01:03.748Z,42.40
2022-12-02T23:03:06.246Z,41.27
2022-12-02T23:05:09.767Z,43.27
2022-12-02T23:07:11.993Z,44.87
2022-12-02T23:09:14.518Z,50.90
2022-12-02T23:11:16.664Z,55.67
2022-12-02T23:13:19.165Z,56.60
2022-12-02T23:15:36.618Z,54.17
2022-12-02T23:17:39.981Z,56.73
2022-12-02T23:19:41.961Z,57.37
2022-12-02T23:21:44.207Z,62.27
2022-12-02T23:23:46.403Z,63.60
2022-12-02T23:25:49.339Z,56.27
2022-12-02T23:27:51.514Z,52.00
2022-12-02T23:29:53.571Z,49.63
2022-12-02T23:31:55.876Z,47.53
2022-12-02T23:33:57.976Z,46.80
2022-12-02T23:36:00.192Z,44.90
2022-12-02T23:38:02.565Z,45.40
2022-12-02T23:40:06.004Z,49.17
2022-12-02T23:42:08.401Z,48.87
2022-12-02T23:44:10.637Z,50.90
2022-12-02T23:46:12.798Z,61.67
2022-12-02T23:48:17.910Z,59.37
2022-12-02T23:50:20.025Z,57.37
2022-12-02T23:52:22.070Z,63.47
2022-12-02T23:54:23.967Z,59.60
2022-12-02T23:56:26.055Z,59.13
2022-12-02T23:58:28.330Z,60.50
